createdAt,value
2022-11-29T00:02:35.000Z,15.02
2022-11-29T00:07:35.000Z,15.34
2022-11-29T00:12:34.000Z,15.75
2022-11-29T00:17:35.000Z,15.77
2022-11-29T00:27:35.000Z,16.07
2022-11-29T00:32:35.000Z,16
2022-11-29T00:37:34.000Z,15.78
2022-11-29T00:42:34.000Z,16.22
2022-11-29T00:47:35.000Z,16.01
2022-11-29T00:52:34.000Z,17.72
2022-11-29T01:02:35.000Z,17.1
2022-11-29T01:07:34.000Z,17.39
2022-11-29T01:12:34.000Z,17.78
2022-11-29T01:17:34.000Z,16.94
2022-11-29T01:27:35.000Z,17.69
2022-11-29T01:32:35.000Z,16.22
2022-11-29T01:37:35.000Z,16.4
2022-11-29T01:42:35.000Z,16.41
2022-11-29T01:47:35.000Z,17.91
2022-11-29T01:52:35.000Z,17.72
2022-11-29T01:57:35.000Z,16.94
2022-11-29T02:02:35.000Z,16.63
2022-11-29T02:07:35.000Z,16.88
2022-11-29T02:12:34.000Z,16.91
2022-11-29T02:17:35.000Z,16.75
2022-11-29T02:22:35.000Z,16.87
2022-11-29T02:27:35.000Z,16.56
2022-11-29T02:32:35.000Z,16.56
2022-11-29T02:37:34.000Z,15.7
2022-11-29T02:42:35.000Z,15.13
2022-11-29T02:47:35.000Z,14.84
2022-11-29T02:52:35.000Z,14.15
2022-11-29T02:57:34.000Z,14.06
2022-11-29T03:07:35.000Z,16.55
2022-11-29T03:12:35.000Z,16.45
2022-11-29T03:17:35.000Z,16.1
2022-11-29T03:32:34.000Z,17.25
2022-11-29T03:37:35.000Z,17.85
2022-11-29T03:42:35.000Z,19.05
2022-11-29T03:47:35.000Z,22.98
2022-11-29T03:52:34.000Z,22.06
2022-11-29T03:57:35.000Z,21.99
2022-11-29T04:02:35.000Z,21.99
2022-11-29T04:07:34.000Z,23.82
2022-11-29T04:12:35.000Z,24.84
2022-11-29T04:17:33.000Z,22.72
2022-11-29T04:22:35.000Z,20.05
2022-11-29T04:27:34.000Z,20.58
2022-11-29T04:42:34.000Z,21
2022-11-29T04:47:34.000Z,21.14
2022-11-29T04:52:34.000Z,22.54
2022-11-29T04:57:34.000Z,23.1
2022-11-29T05:07:34.000Z,20.09
2022-11-29T05:12:35.000Z,19.31
2022-11-29T05:17:34.000Z,19.38
2022-11-29T05:22:35.000Z,18.72
2022-11-29T05:27:35.000Z,18.93
2022-11-29T05:32:34.000Z,19.75
2022-11-29T05:37:35.000Z,19.03
2022-11-29T05:42:35.000Z,20.95
2022-11-29T05:52:35.000Z,22.11
2022-11-29T05:57:34.000Z,21.3
2022-11-29T06:02:35.000Z,22.46
2022-11-29T06:07:34.000Z,22.12
2022-11-29T06:12:35.000Z,21.13
2022-11-29T06:17:34.000Z,23.08
2022-11-29T06:22:35.000Z,21.93
2022-11-29T06:27:34.000Z,22.03
2022-11-29T06:32:35.000Z,20.36
2022-11-29T06:37:34.000Z,21.91
2022-11-29T06:42:34.000Z,20.73
2022-11-29T06:47:35.000Z,20.73
2022-11-29T06:52:34.000Z,20.42
2022-11-29T06:57:35.000Z,21.41
2022-11-29T07:02:35.000Z,21.05
2022-11-29T07:07:35.000Z,21.94
2022-11-29T07:12:34.000Z,23.24
2022-11-29T07:22:34.000Z,23.46
2022-11-29T07:27:35.000Z,23.82
2022-11-29T07:32:34.000Z,22.81
2022-11-29T07:37:35.000Z,22.88
2022-11-29T07:42:34.000Z,22.45
2022-11-29T07:47:35.000Z,23.89
2022-11-29T07:57:35.000Z,24.18
2022-11-29T08:02:34.000Z,22.73
2022-11-29T08:07:35.000Z,25.47
2022-11-29T08:12:34.000Z,26.72
2022-11-29T08:17:35.000Z,28.42
2022-11-29T08:22:34.000Z,33.18
2022-11-29T08:27:34.000Z,35.76
2022-11-29T08:32:34.000Z,31.2
2022-11-29T08:37:35.000Z,25.09
2022-11-29T08:42:35.000Z,26.38
2022-11-29T08:47:35.000Z,27.19
2022-11-29T08:52:35.000Z,26.51
2022-11-29T08:57:50.000Z,24.86
2022-11-29T09:02:35.000Z,24.86
2022-11-29T09:07:34.000Z,25.54
2022-11-29T09:12:35.000Z,24.07
2022-11-29T09:17:35.000Z,24.74
2022-11-29T09:22:34.000Z,25.23
2022-11-29T09:27:35.000Z,22.76
2022-11-29T09:32:34.000Z,25.24
2022-11-29T09:37:35.000Z,29.96
2022-11-29T09:42:35.000Z,29.53
2022-11-29T09:47:35.000Z,28.44
2022-11-29T09:52:35.000Z,29.64
2022-11-29T09:57:34.000Z,28.54
2022-11-29T10:02:35.000Z,28.15
2022-11-29T10:07:34.000Z,28.35
2022-11-29T10:12:35.000Z,27.76
2022-11-29T10:17:34.000Z,27.76
2022-11-29T10:22:35.000Z,30.27
2022-11-29T10:27:34.000Z,29.37
2022-11-29T10:32:35.000Z,28.52
2022-11-29T10:37:34.000Z,30
2022-11-29T10:42:35.000Z,29.11
2022-11-29T10:47:34.000Z,30.11
2022-11-29T10:52:35.000Z,32.17
2022-11-29T10:57:34.000Z,30.07
2022-11-29T11:02:35.000Z,28.59
2022-11-29T11:07:34.000Z,31.58
2022-11-29T11:12:35.000Z,32.1
2022-11-29T11:17:35.000Z,32.93
2022-11-29T11:22:35.000Z,31.08
2022-11-29T11:32:35.000Z,32
2022-11-29T11:37:35.000Z,33.15
2022-11-29T11:42:35.000Z,33.92
2022-11-29T11:47:35.000Z,35.19
2022-11-29T11:52:34.000Z,38.31
2022-11-29T11:57:35.000Z,36.88
2022-11-29T12:02:35.000Z,36.88
2022-11-29T12:08:15.000Z,33.08
2022-11-29T12:12:34.000Z,33.08
2022-11-29T12:17:35.000Z,33.35
2022-11-29T12:22:35.000Z,33.78
2022-11-29T12:27:35.000Z,37.49
2022-11-29T12:32:35.000Z,40.38
2022-11-29T12:37:34.000Z,39.22
2022-11-29T12:42:35.000Z,38.16
2022-11-29T12:47:46.000Z,36.52
2022-11-29T12:52:34.000Z,37.83
2022-11-29T12:57:35.000Z,38.33
2022-11-29T13:02:35.000Z,39.18
2022-11-29T13:07:35.000Z,37.48
2022-11-29T13:12:35.000Z,37.52
2022-11-29T13:17:35.000Z,37.52
2022-11-29T13:22:35.000Z,36.82
2022-11-29T13:27:35.000Z,36.58
2022-11-29T13:32:34.000Z,36.06
2022-11-29T13:47:35.000Z,37.3
2022-11-29T13:52:35.000Z,41.81
2022-11-29T13:57:34.000Z,40.86
2022-11-29T14:02:34.000Z,37.62
2022-11-29T14:07:35.000Z,38.71
2022-11-29T14:12:35.000Z,41.29
2022-11-29T14:17:34.000Z,42.85
2022-11-29T14:22:35.000Z,40.47
2022-11-29T14:27:34.000Z,45.93
2022-11-29T14:32:34.000Z,48.91
2022-11-29T14:37:35.000Z,48.91
2022-11-29T14:42:35.000Z,49.86
2022-11-29T14:47:34.000Z,47.88
2022-11-29T14:52:34.000Z,44.46
2022-11-29T14:57:35.000Z,42.38
2022-11-29T15:07:35.000Z,49.01
2022-11-29T15:12:34.000Z,51.77
2022-11-29T15:17:34.000Z,50.91
2022-11-29T15:22:34.000Z,49.2
2022-11-29T15:27:34.000Z,47.13
2022-11-29T15:32:34.000Z,47.02
2022-11-29T15:37:35.000Z,47.49
2022-11-29T15:42:42.000Z,48.56
2022-11-29T15:47:35.000Z,47.3
2022-11-29T15:52:34.000Z,49.59
2022-11-29T16:02:35.000Z,48.83
2022-11-29T16:07:35.000Z,48.83
2022-11-29T16:12:35.000Z,48.76
2022-11-29T16:17:35.000Z,48.38
2022-11-29T16:22:35.000Z,49.46
2022-11-29T16:27:35.000Z,48.61
2022-11-29T16:32:35.000Z,50.64
2022-11-29T16:42:36.000Z,48.95
2022-11-29T16:47:34.000Z,49.69
2022-11-29T16:52:34.000Z,50.76
2022-11-29T17:02:34.000Z,48.13
2022-11-29T17:07:35.000Z,47.66
2022-11-29T17:12:34.000Z,47.66
2022-11-29T17:17:35.000Z,53.88
2022-11-29T17:22:35.000Z,53.17
2022-11-29T17:27:35.000Z,53.59
2022-11-29T17:32:37.000Z,53.62
2022-11-29T17:37:35.000Z,49.75
2022-11-29T17:42:34.000Z,46.81
2022-11-29T17:47:34.000Z,46.09
2022-11-29T17:52:35.000Z,46.74
2022-11-29T17:57:35.000Z,45.48
2022-11-29T18:02:34.000Z,47.76
2022-11-29T18:07:35.000Z,44.91
2022-11-29T18:12:35.000Z,47.91
2022-11-29T18:17:35.000Z,51.84
2022-11-29T18:22:35.000Z,49.44
2022-11-29T18:27:34.000Z,49.44
2022-11-29T18:32:35.000Z,50.98
2022-11-29T18:38:23.000Z,50.22
2022-11-29T18:42:35.000Z,50.09
2022-11-29T18:47:34.000Z,50.49
2022-11-29T18:57:34.000Z,54.76
2022-11-29T19:02:35.000Z,55.5
2022-11-29T19:07:35.000Z,57.42
2022-11-29T19:12:35.000Z,59.7
2022-11-29T19:27:35.000Z,66.56
2022-11-29T19:32:34.000Z,68.79
2022-11-29T19:37:35.000Z,68.9
2022-11-29T19:42:34.000Z,67.67
2022-11-29T19:47:35.000Z,65.95
2022-11-29T19:52:34.000Z,65.95
2022-11-29T19:57:35.000Z,66.97
2022-11-29T20:02:34.000Z,66.56
2022-11-29T20:07:35.000Z,67.9
2022-11-29T20:17:34.000Z,80.5
2022-11-29T20:22:35.000Z,80.5
2022-11-29T20:27:35.000Z,80.81
2022-11-29T20:32:35.000Z,79.2
2022-11-29T20:37:34.000Z,81.04
2022-11-29T20:42:35.000Z,72.36
2022-11-29T20:47:35.000Z,74.57
2022-11-29T20:52:34.000Z,82.47
2022-11-29T21:02:34.000Z,70.49
2022-11-29T21:07:35.000Z,60.06
2022-11-29T21:12:34.000Z,60.06
2022-11-29T21:17:43.000Z,53.18
2022-11-29T21:22:35.000Z,52.79
2022-11-29T21:27:34.000Z,52.78
2022-11-29T21:32:35.000Z,55.02
2022-11-29T21:37:34.000Z,55.95
2022-11-29T21:42:35.000Z,52.94
2022-11-29T21:47:34.000Z,51.4
2022-11-29T21:52:34.000Z,53.86
2022-11-29T21:57:35.000Z,56.56
2022-11-29T22:02:34.000Z,56.89
2022-11-29T22:07:34.000Z,56.8
2022-11-29T22:12:44.000Z,58.97
2022-11-29T22:17:35.000Z,58.97
2022-11-29T22:22:38.000Z,57
2022-11-29T22:27:34.000Z,59.2
2022-11-29T22:32:35.000Z,54.81
2022-11-29T22:37:35.000Z,51.29
2022-11-29T22:42:34.000Z,53.65
2022-11-29T22:47:35.000Z,53.1
2022-11-29T22:52:35.000Z,55.06
2022-11-29T22:57:34.000Z,55.39
2022-11-29T23:02:35.000Z,55.98
2022-11-29T23:07:34.000Z,56.75
2022-11-29T23:12:34.000Z,57.08
2022-11-29T23:17:34.000Z,59.37
2022-11-29T23:22:35.000Z,59.52
2022-11-29T23:27:34.000Z,59.52
2022-11-29T23:32:34.000Z,57.51
2022-11-29T23:37:34.000Z,58.14
2022-11-29T23:42:34.000Z,55.76
2022-11-29T23:47:35.000Z,53.98
2022-11-29T23:52:34.000Z,55.71
2022-11-29T23:57:35.000Z,55.38
